Nearby METAR Reports

 

CWGT - Sisters Island (Auto)
Distance from station: NE 39km
Updated: 2018-06-17 20:00

 Wind from WSW
Wind: WSW 9 km/h
Temperature: 27°C
Dew Point: 6°C
Humidity: 26%
2018/06/18 03:00 CWGT 180300Z AUTO 25005KT 27/06 RMK AO1 SLP111 T02690057 56011
CWGB - Ballenas Island (Auto)
Distance from station: ENE 47km
Updated: 2018-06-17 20:00

 Wind from W
Wind: W 20 km/h
Temperature: 25°C
Dew Point: 10°C
Humidity: 39%
2018/06/18 03:00 CWGB 180300Z AUTO 26011KT 25/10 RMK AO1 SLP105 T02460096 56013
CYQQ - CFB Comox
Distance from station: N 55km
Updated: 2018-06-17 20:00

 
2018/06/18 03:00 CYQQ 180300Z CCA 34009KT 20SM FEW240 29/09 A2986 RMK CI1 SLP110
 
CYPW - Powell River Airport
Distance from station: NNE 69km
Updated: 2018-06-17 19:00
NOT Current
Few Clouds
Few Clouds
 Wind from W
Wind: W 7 km/h
Temperature: 28°C
Dew Point: 12°C
Humidity: 37%
Barometer: 1011.9 hPa
Clouds: Few Clouds
Visibility: 48 km
Cloud details: Few Clouds 5791 m
Few Clouds 7010 m
2018/06/18 02:00 CYPW 180200Z 27004KT 30SM FEW190 FEW230 28/12 A2988 RMK AC1CS1 CS TR LAST STFD OBS NEXT OBS 181300 UTC SLP118 DENSITY ALT 2100FT
CYCD - Nanaimo Airport
Distance from station: ESE 70km
Updated: 2018-06-17 20:00
Partly cloudy
Partly cloudy
 Wind from NW
Wind: NW 7 km/h
Temperature: 30°C
Dew Point: 4°C
Humidity: 19%
Barometer: 1010.5 hPa
Clouds: Partly cloudy
Visibility: 48 km
Cloud details: Few Clouds 5486 m
Partly cloudy 7620 m
2018/06/18 03:00 CYCD 180300Z 32004KT 30SM FEW180 SCT250 30/04 A2984 RMK AC2CI1 SLP106 DENSITY ALT 1900FT
CYAZ - Tofino Airport
Distance from station: WSW 73km
Updated: 2018-06-17 18:00
NOT Current
Few Clouds
Few Clouds
 Wind from WSW
Wind: WSW 7 km/h
Temperature: 22°C
Dew Point: 11°C
Humidity: 50%
Barometer: 1012.2 hPa
Clouds: Few Clouds
Visibility: 24 km
Cloud details: Few Clouds 7010 m
2018/06/18 01:00 CYAZ 180100Z 24004KT 140V300 15SM FEW230 22/11 A2989 RMK CI1 CI TR LAST STFD OBS/NEXT 181300UTC SLP122 DENSITY ALT 1000FT
 
CWEL - Entrance Island (Auto)
Distance from station: E 73km
Updated: 2018-06-17 20:00

 Wind from NW
Wind: NW 13 km/h
Temperature: 21°C
Dew Point: 13°C
Humidity: 60%
2018/06/18 03:00 CWEL 180300Z AUTO 31007KT 21/13 RMK AO1 SLP104 T02140129 56013
CYBL - Campbell River Airport
Distance from station: NNW 88km
Updated: 2018-06-17 20:00
Few Clouds
Few Clouds
 Wind from NNW
Wind: NNW 9 km/h
Temperature: 27°C
Dew Point: 12°C
Humidity: 39%
Barometer: 1011.5 hPa
Clouds: Few Clouds
Visibility: 48 km
Cloud details: Few Clouds 7010 m
2018/06/18 03:00 CYBL 180300Z 33005KT 30SM FEW230 27/12 A2987 RMK CI1 SLP116 DENSITY ALT 1900FT
CWKH - Malahat Highway (Auto)
Distance from station: SE 116km
Updated: 2018-06-17 20:00

 
Temperature: 24°C
Dew Point: 2°C
Humidity: 24%
2018/06/18 03:00 CWKH 180300Z AUTO 24/02 RMK AO1 SLP108 T02350022 56007
 
CYVR - Vancouver Intl Airport
Distance from station: E 118km
Updated: 2018-06-17 20:00
Mostly cloudy
Mostly cloudy
 Wind from NW
Wind: NW 22 km/h
Temperature: 21°C
Dew Point: 14°C
Humidity: 64%
Barometer: 1009.8 hPa
Clouds: Mostly cloudy
Visibility: 48 km
Cloud details: Few Clouds 4877 m
Mostly cloudy 7010 m
2018/06/18 03:00 CYVR 180300Z 31012KT 30SM FEW160 BKN230 21/14 A2982 RMK AC1CI5 AC TR SLP100 DENSITY ALT 900FT
CYYJ - Victoria Intl Airport
Distance from station: ESE 120km
Updated: 2018-06-17 20:00
Partly cloudy
Partly cloudy
 Wind from ESE
Wind: ESE 4 km/h
Temperature: 25°C
Dew Point: 10°C
Humidity: 39%
Barometer: 1010.5 hPa
Clouds: Partly cloudy
Visibility: 48 km
Cloud details: Few Clouds 6096 m
Partly cloudy 7620 m
2018/06/18 03:00 CYYJ 180300Z 12002KT 30SM FEW200 SCT250 25/10 A2984 RMK CC2CI2 SLP104 DENSITY ALT 1400FT
CWEB - Estevan Pt. (Auto)
Distance from station: W 129km
Updated: 2018-06-17 20:00

 Wind from NNW
Wind: NNW 31 km/h
Temperature: 18°C
Dew Point: 12°C
Humidity: 68%
2018/06/18 03:00 CWEB 180300Z AUTO 33017KT 18/12 RMK AO1 PK WND 33020/0247 SLP119 T01790124 57013
 
CWQK - Race Rocks (Auto)
Distance from station: SE 138km
Updated: 2018-06-17 20:00

 Wind from W
Wind: W 31 km/h
Temperature: 21°C
Dew Point: 7°C
Humidity: 40%
2018/06/18 03:00 CWQK 180300Z AUTO 27017KT 21/07 RMK AO1 PK WND 27020/0233 SLP109 T02140073 56007
CWAE - Whistler
Distance from station: NE 167km
Updated: 2018-06-17 18:00
NOT Current
Partly cloudy
Partly cloudy
 Wind from N
Wind: N 6 km/h
Temperature: 28°C
Dew Point: 1°C
Humidity: 17%
Barometer: 1013.2 hPa
Clouds: Partly cloudy
Visibility: 24 km
Cloud details: Partly cloudy 6706 m
2018/06/18 01:00 CWAE 180100Z 36003KT 15SM SCT220 28/01 A2992 RMK CI4 LAST OBS/NEXT 181300UTC WND ESTD SLP123 DENSITY ALT 4200FT
CYZT - Port Hardy Airport
Distance from station: NW 244km
Updated: 2018-06-17 20:00
Few Clouds
Few Clouds
 Wind from NNW
Wind: NNW 9 km/h
Temperature: 20°C
Dew Point: 13°C
Humidity: 64%
Barometer: 1015.2 hPa
Clouds: Few Clouds
Visibility: 32 km
Cloud details: Few Clouds 6706 m
2018/06/18 03:00 CYZT 180300Z 33005KT 20SM FEW220 20/13 A2998 RMK CI1 SLP153 DENSITY ALT 700FT
 
CWRU - Solander Isl (Auto)
Distance from station: WNW 247km
Updated: 2018-06-17 20:00

 Wind from NW
Wind: NW 69 km/h
Temperature: 14°C
Dew Point: 12°C
Humidity: 88%
2018/06/18 03:00 CWRU 180300Z AUTO 31037KT 14/12 RMK AO1 PK WND 32046/0213 SLP122 T01380118 55018